YWLM

Newcastle Airport

Williamtown, Australia
TAF YWLM 201738Z 2018/2118 15008KT 9999 -DZ SCT005 BKN015 BECMG 2022/2024 10008KT 9999 -SHRA SCT025 SCT070 FM210600 08010KT 9999 -SHRA SCT025 FM211200 VRB03KT 9999 FEW020 INTER 2018/2102 5000 SHRA BKN015
Issued Valid From Valid To
Jan-20 @ 17:38 UTC
(4 hours ago)
Jan-20 @ 18:00 UTC
(3 hours ago)
Jan-21 @ 18:00 UTC
(in 21 hours)
Jan-20 @ 18:00 to Jan-20 @ 22:00
TAF YWLM 201738Z 2018/2118 15008KT 9999 -DZ SCT005 BKN015
Wind Visibility Clouds Conditions
150° at 8 knots 10,000+ meters
  • Scattered at 500' AGL
  • Broken at 1,500' AGL
  • Light Drizzle
Temporary Jan-20 @ 18:00 to Jan-21 @ 02:00
INTER 2018/2102 5000 SHRA BKN015
Visibility Clouds Conditions
5,005 meters
  • Broken at 1,500' AGL
  • Rain
Becoming Jan-20 @ 22:00 to Jan-21 @ 06:00
BECMG 2022/2024 10008KT 9999 -SHRA SCT025 SCT070
Wind Visibility Clouds Conditions
100° at 8 knots 10,000+ meters
  • Scattered at 2,500' AGL
  • Scattered at 7,000' AGL
  • Light Rain
From Jan-21 @ 06:00 to Jan-21 @ 12:00
FM210600 08010KT 9999 -SHRA SCT025
Wind Visibility Clouds Conditions
80° at 10 knots 10,000+ meters
  • Scattered at 2,500' AGL
  • Light Rain
From Jan-21 @ 12:00 to Jan-21 @ 18:00
FM211200 VRB03KT 9999 FEW020
Wind Visibility Clouds
Variable at 3 knots 10,000+ meters
  • Few at 2,000' AGL
TAF YWLM 201738Z 2018/2118 15008KT 9999 -DZ SCT005 BKN015 BECMG 2022/2024 10008KT 9999 -SHRA SCT025 SCT070 FM210600 08010KT 9999 -SHRA SCT025 FM211200 VRB03KT 9999 FEW020 INTER 2018/2102 5000 SHRA BKN015
Issued Jan-20 @ 17:38 UTC
(4 hours ago)
Valid From Jan-20 @ 18:00 UTC
(3 hours ago)
Valid To Jan-21 @ 18:00 UTC
(in 21 hours)
Jan-20 @ 18:00 - Jan-20 @ 22:00
Wind Visibility
150° at 8 knots 10,000+ meters
Clouds
  • Scattered at 500' AGL
  • Broken at 1,500' AGL
Conditions
  • Light Drizzle
Temporary Jan-20 @ 18:00 - Jan-21 @ 02:00
Clouds
  • Broken at 1,500' AGL
Conditions
  • Rain
Becoming Jan-20 @ 22:00 - Jan-21 @ 06:00
Wind Visibility
100° at 8 knots 10,000+ meters
Clouds
  • Scattered at 2,500' AGL
  • Scattered at 7,000' AGL
Conditions
  • Light Rain
From Jan-21 @ 06:00 - Jan-21 @ 12:00
Wind Visibility
80° at 10 knots 10,000+ meters
Clouds
  • Scattered at 2,500' AGL
Conditions
  • Light Rain
From Jan-21 @ 12:00 - Jan-21 @ 18:00
Wind Visibility
Variable at 3 knots 10,000+ meters
Clouds
  • Few at 2,000' AGL